Time;durP1;ratioP1;P1;durP2;ratioP2;P2;SDS_P1;SDS_P2;PMS_P1;PMS_P2;Temp;Humidity;BMP_temperature;BMP_pressure;BME280_temperature;BME280_humidity;BME280_pressure;Samples;Min_cycle;Max_cycle;Signal;HPM_P1;HPM_P2
2024/01/28 00:01:57;;;;;;;28.00;12.77;;;2.90;1.00;;;;;;5074567;28;20454;-47
2024/01/28 00:04:22;;;;;;;28.20;12.40;;;2.90;1.00;;;;;;5074223;28;20973;-47
2024/01/28 00:06:48;;;;;;;34.70;13.00;;;2.90;1.00;;;;;;5073427;28;20904;-47
2024/01/28 00:09:14;;;;;;;28.37;12.17;;;3.00;1.00;;;;;;5073429;28;20257;-46
2024/01/28 00:11:39;;;;;;;36.27;12.50;;;3.00;1.00;;;;;;5073858;28;20181;-46
2024/01/28 00:14:05;;;;;;;31.63;11.50;;;3.00;1.00;;;;;;5073975;28;20189;-46
2024/01/28 00:16:31;;;;;;;28.87;12.30;;;3.00;1.00;;;;;;5073229;28;20178;-47
2024/01/28 00:19:00;;;;;;;20.13;11.40;;;3.00;1.00;;;;;;5073516;28;20408;-46
2024/01/28 00:21:26;;;;;;;34.17;12.67;;;3.00;1.00;;;;;;5073831;28;20189;-46
2024/01/28 00:23:51;;;;;;;28.03;12.23;;;2.90;1.00;;;;;;5073824;28;20803;-47
2024/01/28 00:26:17;;;;;;;28.67;11.63;;;2.90;1.00;;;;;;5074111;28;20173;-47
2024/01/28 00:28:42;;;;;;;24.43;11.03;;;2.80;1.00;;;;;;5073863;28;20537;-47
2024/01/28 00:31:11;;;;;;;30.00;11.33;;;2.80;1.00;;;;;;5073780;28;20182;-47
2024/01/28 00:33:36;;;;;;;25.87;11.97;;;2.90;1.00;;;;;;5073920;28;20209;-47
2024/01/28 00:36:02;;;;;;;35.30;12.47;;;2.80;1.00;;;;;;5073993;28;20530;-48
2024/01/28 00:38:31;;;;;;;33.67;12.20;;;2.80;1.00;;;;;;5073701;28;20265;-47
2024/01/28 00:40:57;;;;;;;34.17;11.67;;;2.70;1.00;;;;;;5074187;28;20784;-48
2024/01/28 00:43:23;;;;;;;25.77;12.33;;;2.70;1.00;;;;;;5073911;28;20455;-48
2024/01/28 00:45:48;;;;;;;27.77;11.13;;;2.70;1.00;;;;;;5074119;28;20448;-48
2024/01/28 00:48:14;;;;;;;26.70;11.53;;;2.60;1.00;;;;;;5073641;28;20181;-47
2024/01/28 00:50:39;;;;;;;33.90;12.23;;;2.50;1.00;;;;;;5073706;28;20174;-47
2024/01/28 00:53:05;;;;;;;24.73;11.20;;;2.40;1.00;;;;;;5073490;28;20206;-47
2024/01/28 00:55:31;;;;;;;27.90;12.70;;;2.30;59.00;;;;;;5073367;28;20178;-47
2024/01/28 00:57:57;;;;;;;24.97;13.00;;;2.30;99.90;;;;;;5073323;28;20186;-47
2024/01/28 01:00:23;;;;;;;34.83;11.70;;;2.20;99.90;;;;;;5073107;28;20417;-46
2024/01/28 01:02:48;;;;;;;28.27;12.60;;;2.20;99.90;;;;;;5073344;28;20419;-46
2024/01/28 01:05:14;;;;;;;33.60;11.90;;;2.10;99.90;;;;;;5073490;28;20416;-51
2024/01/28 01:07:40;;;;;;;32.17;12.83;;;2.00;1.00;;;;;;5073048;28;20600;-51
2024/01/28 01:10:08;;;;;;;37.43;12.43;;;2.00;92.10;;;;;;5073130;28;20408;-51
2024/01/28 01:12:33;;;;;;;24.90;11.33;;;1.90;64.00;;;;;;5072733;28;20599;-51
2024/01/28 01:14:59;;;;;;;24.77;11.43;;;1.90;99.90;;;;;;5072673;28;20412;-51
2024/01/28 01:17:25;;;;;;;34.23;12.93;;;1.90;99.90;;;;;;5073673;28;20178;-51
2024/01/28 01:19:50;;;;;;;26.93;12.23;;;1.80;1.00;;;;;;5074493;28;20170;-51
2024/01/28 01:22:16;;;;;;;23.10;12.50;;;1.80;1.00;;;;;;5077097;28;20182;-50
2024/01/28 01:24:41;;;;;;;32.40;12.50;;;1.80;1.00;;;;;;5077237;28;20224;-50
2024/01/28 01:27:07;;;;;;;26.60;12.30;;;1.80;54.60;;;;;;5077109;28;20177;-51
2024/01/28 01:29:33;;;;;;;25.20;11.60;;;1.70;99.90;;;;;;5076951;28;20186;-51
2024/01/28 01:31:59;;;;;;;32.00;13.10;;;1.70;99.90;;;;;;5077081;28;20404;-50
2024/01/28 01:34:24;;;;;;;32.23;13.07;;;1.70;99.90;;;;;;5077271;28;20174;-51
2024/01/28 01:36:50;;;;;;;28.03;11.77;;;1.70;1.00;;;;;;5077075;28;20291;-52
2024/01/28 01:39:16;;;;;;;26.50;11.90;;;1.70;1.00;;;;;;5076929;28;20185;-51
2024/01/28 01:41:43;;;;;;;29.20;12.50;;;1.70;12.80;;;;;;5076966;28;20416;-51
2024/01/28 01:44:09;;;;;;;35.17;12.33;;;1.70;99.90;;;;;;5076982;28;20182;-52
2024/01/28 01:46:35;;;;;;;28.83;12.40;;;1.80;99.90;;;;;;5077036;28;20968;-51
2024/01/28 01:49:02;;;;;;;32.37;13.20;;;1.80;99.90;;;;;;5077144;28;20487;-52
2024/01/28 01:51:28;;;;;;;32.90;11.73;;;1.70;99.90;;;;;;5077002;28;20214;-52
2024/01/28 01:53:55;;;;;;;27.53;12.63;;;1.80;1.00;;;;;;5076861;28;20893;-51
2024/01/28 01:56:21;;;;;;;39.23;13.40;;;1.80;1.00;;;;;;5076700;28;20416;-51
2024/01/28 01:58:46;;;;;;;34.23;12.10;;;1.80;99.90;;;;;;5076716;28;20416;-51
2024/01/28 02:01:16;;;;;;;29.00;12.17;;;1.90;99.90;;;;;;5076830;28;20443;-51
2024/01/28 02:03:42;;;;;;;28.97;12.77;;;1.80;99.90;;;;;;5076405;28;20627;-51
2024/01/28 02:06:09;;;;;;;33.13;12.77;;;1.80;99.90;;;;;;5076515;28;20515;-52
2024/01/28 02:08:34;;;;;;;30.00;13.80;;;1.80;1.00;;;;;;5076337;28;20478;-50
2024/01/28 02:11:02;;;;;;;32.20;12.43;;;1.80;1.00;;;;;;5076276;28;20412;-50
2024/01/28 02:13:28;;;;;;;33.20;13.37;;;1.80;1.00;;;;;;5076303;28;20293;-50
2024/01/28 02:15:53;;;;;;;26.27;12.20;;;1.80;1.00;;;;;;5076258;28;20902;-50
2024/01/28 02:18:19;;;;;;;39.20;12.30;;;1.80;1.00;;;;;;5076441;28;20184;-50
2024/01/28 02:20:44;;;;;;;36.37;13.70;;;1.80;1.00;;;;;;5076085;28;20197;-51
2024/01/28 02:23:16;;;;;;;35.03;12.73;;;1.80;1.00;;;;;;5076389;28;20269;-51
2024/01/28 02:25:42;;;;;;;31.70;12.30;;;1.80;1.00;;;;;;5076099;28;20637;-52
2024/01/28 02:28:07;;;;;;;32.07;12.67;;;1.80;1.00;;;;;;5076100;28;20459;-51
2024/01/28 02:30:33;;;;;;;30.37;13.37;;;1.70;1.00;;;;;;5075330;28;20178;-51
2024/01/28 02:32:58;;;;;;;30.40;12.93;;;1.70;3.10;;;;;;5075898;28;20210;-51
2024/01/28 02:35:24;;;;;;;32.80;13.47;;;1.70;87.30;;;;;;5076125;28;20537;-51
2024/01/28 02:37:49;;;;;;;41.40;14.40;;;1.70;99.90;;;;;;5075922;28;20179;-52
2024/01/28 02:40:15;;;;;;;34.50;13.10;;;1.70;1.00;;;;;;5076057;28;20178;-51
2024/01/28 02:42:41;;;;;;;28.70;12.70;;;1.70;1.00;;;;;;5075904;28;20181;-51
2024/01/28 02:45:07;;;;;;;29.40;12.57;;;1.70;1.00;;;;;;5075732;28;20178;-51
2024/01/28 02:47:33;;;;;;;25.67;12.10;;;1.70;1.00;;;;;;5075811;28;20182;-52
2024/01/28 02:49:58;;;;;;;28.73;12.80;;;1.70;99.90;;;;;;5075886;28;20755;-51
2024/01/28 02:52:24;;;;;;;44.93;13.67;;;1.70;99.90;;;;;;5075660;28;20206;-51
2024/01/28 02:54:49;;;;;;;33.10;12.10;;;1.70;1.00;;;;;;5075803;28;20255;-51
2024/01/28 02:57:15;;;;;;;31.47;12.83;;;1.70;1.00;;;;;;5075728;28;20190;-51
2024/01/28 02:59:40;;;;;;;38.20;14.33;;;1.70;1.00;;;;;;5075270;28;20186;-51
2024/01/28 03:02:06;;;;;;;32.80;12.67;;;1.70;1.00;;;;;;5075461;28;20181;-51
2024/01/28 03:04:36;;;;;;;34.50;14.13;;;1.70;1.00;;;;;;5075306;28;20217;-51
2024/01/28 03:07:02;;;;;;;33.83;13.77;;;1.60;23.50;;;;;;5075292;28;20287;-51
2024/01/28 03:09:27;;;;;;;35.03;13.77;;;1.60;99.90;;;;;;5075736;28;20881;-51
2024/01/28 03:11:53;;;;;;;32.27;13.30;;;1.60;99.90;;;;;;5075509;28;20557;-51
2024/01/28 03:14:18;;;;;;;40.40;14.27;;;1.60;99.90;;;;;;5074871;28;20178;-51
2024/01/28 03:16:46;;;;;;;43.60;14.30;;;1.60;99.90;;;;;;5074874;28;20539;-51
2024/01/28 03:19:11;;;;;;;29.37;13.70;;;1.50;1.00;;;;;;5075336;28;20256;-50
2024/01/28 03:21:37;;;;;;;31.07;14.13;;;1.60;1.00;;;;;;5075154;28;20955;-52
2024/01/28 03:24:03;;;;;;;32.37;14.03;;;1.60;1.00;;;;;;5075020;28;20897;-51
2024/01/28 03:26:28;;;;;;;40.80;15.30;;;1.60;1.00;;;;;;5075344;28;20650;-51
2024/01/28 03:28:54;;;;;;;33.27;15.00;;;1.60;1.00;;;;;;5074739;28;20265;-50
2024/01/28 03:31:19;;;;;;;47.87;15.90;;;1.50;1.00;;;;;;5075162;28;20179;-50
2024/01/28 03:33:46;;;;;;;35.13;14.80;;;1.50;1.00;;;;;;5074742;28;20213;-50
2024/01/28 03:36:11;;;;;;;43.67;15.77;;;1.50;1.00;;;;;;5074988;28;20245;-50
2024/01/28 03:38:39;;;;;;;32.63;14.30;;;1.40;1.00;;;;;;5074966;28;20504;-51
2024/01/28 03:41:05;;;;;;;41.83;15.80;;;1.40;1.00;;;;;;5074805;28;20585;-51
2024/01/28 03:43:30;;;;;;;40.50;13.73;;;1.40;1.00;;;;;;5074039;28;20420;-51
2024/01/28 03:45:56;;;;;;;37.30;15.83;;;1.30;1.00;;;;;;5074650;28;20174;-50
2024/01/28 03:48:21;;;;;;;34.53;14.60;;;1.30;1.00;;;;;;5074570;28;20178;-50
2024/01/28 03:50:47;;;;;;;27.73;14.23;;;1.30;21.50;;;;;;5074623;28;20220;-50
2024/01/28 03:53:13;;;;;;;40.10;15.53;;;1.30;97.20;;;;;;5074687;28;20324;-51
2024/01/28 03:55:38;;;;;;;34.80;13.50;;;1.20;80.00;;;;;;5074733;28;20182;-51
2024/01/28 03:58:04;;;;;;;35.43;14.70;;;1.20;99.90;;;;;;5074227;28;20581;-50
2024/01/28 04:00:29;;;;;;;39.10;15.27;;;1.10;99.90;;;;;;5074325;28;20186;-51
2024/01/28 04:03:00;;;;;;;37.83;14.33;;;1.10;99.90;;;;;;5074470;28;20664;-52
2024/01/28 04:05:26;;;;;;;30.80;14.23;;;1.10;99.90;;;;;;5074348;28;20219;-51
2024/01/28 04:07:52;;;;;;;34.17;14.10;;;1.00;99.90;;;;;;5073958;28;20476;-51
2024/01/28 04:10:18;;;;;;;41.33;15.97;;;0.90;99.90;;;;;;5074337;28;20281;-52
2024/01/28 04:12:43;;;;;;;36.07;14.33;;;0.90;99.90;;;;;;5074372;28;20775;-51
2024/01/28 04:15:09;;;;;;;34.37;15.20;;;0.90;99.90;;;;;;5074689;28;20214;-51
2024/01/28 04:17:35;;;;;;;44.03;16.80;;;0.80;99.90;;;;;;5074059;28;20540;-51
2024/01/28 04:20:02;;;;;;;31.17;14.30;;;0.80;99.90;;;;;;5073986;28;20428;-51
2024/01/28 04:22:29;;;;;;;37.73;14.60;;;0.70;1.00;;;;;;5074096;28;20408;-52
2024/01/28 04:24:55;;;;;;;41.90;14.77;;;0.70;1.00;;;;;;5074281;28;20423;-51
2024/01/28 04:27:20;;;;;;;37.67;14.33;;;0.60;99.90;;;;;;5073553;28;20409;-51
2024/01/28 04:29:46;;;;;;;32.87;14.37;;;0.60;1.00;;;;;;5073808;28;20177;-51
2024/01/28 04:32:12;;;;;;;31.33;14.30;;;0.60;1.00;;;;;;5073389;28;20217;-50
2024/01/28 04:34:37;;;;;;;37.63;14.90;;;0.60;99.90;;;;;;5073441;28;20279;-51
2024/01/28 04:37:03;;;;;;;35.70;14.37;;;0.50;1.00;;;;;;5073699;28;20182;-51
2024/01/28 04:39:28;;;;;;;30.90;13.90;;;0.50;99.90;;;;;;5073773;28;20182;-52
2024/01/28 04:41:54;;;;;;;39.50;15.50;;;0.50;63.80;;;;;;5073416;28;20185;-51
2024/01/28 04:44:20;;;;;;;38.20;15.33;;;0.50;1.00;;;;;;5073531;28;20205;-50
2024/01/28 04:46:46;;;;;;;41.93;14.83;;;0.50;1.00;;;;;;5073291;28;20916;-51
2024/01/28 04:49:11;;;;;;;33.27;13.70;;;0.50;99.90;;;;;;5073283;28;20178;-51
2024/01/28 04:51:37;;;;;;;50.63;15.90;;;0.60;99.90;;;;;;5073510;28;20181;-51
2024/01/28 04:54:02;;;;;;;37.23;14.83;;;0.60;99.90;;;;;;5072909;28;20249;-51
2024/01/28 04:56:28;;;;;;;25.57;13.57;;;0.60;99.90;;;;;;5073268;28;20265;-50
2024/01/28 04:58:54;;;;;;;34.03;15.27;;;0.60;99.90;;;;;;5073414;28;20186;-50
2024/01/28 05:01:19;;;;;;;32.10;14.10;;;0.70;99.90;;;;;;5072980;28;20182;-51
2024/01/28 05:03:45;;;;;;;47.00;16.40;;;0.80;1.00;;;;;;5073215;28;20193;-51
2024/01/28 05:06:10;;;;;;;30.60;15.57;;;0.80;1.00;;;;;;5072695;28;20178;-50
2024/01/28 05:08:36;;;;;;;36.23;14.70;;;0.80;99.90;;;;;;5073261;28;20304;-50
2024/01/28 05:11:02;;;;;;;41.77;14.13;;;0.80;99.90;;;;;;5073455;28;20178;-50
2024/01/28 05:13:27;;;;;;;33.00;14.27;;;0.80;99.90;;;;;;5073419;28;20300;-50
2024/01/28 05:15:53;;;;;;;42.00;13.70;;;0.90;99.90;;;;;;5073291;28;20188;-50
2024/01/28 05:18:19;;;;;;;31.13;13.70;;;0.90;99.90;;;;;;5073127;28;20175;-50
2024/01/28 05:20:45;;;;;;;35.10;14.10;;;1.00;99.90;;;;;;5073517;28;20280;-50
2024/01/28 05:23:10;;;;;;;33.07;13.70;;;1.10;1.00;;;;;;5072935;28;20452;-51
2024/01/28 05:25:36;;;;;;;35.50;14.03;;;1.10;1.00;;;;;;5073355;28;20201;-50
2024/01/28 05:28:02;;;;;;;44.30;14.53;;;1.00;99.90;;;;;;5073201;28;20238;-50
2024/01/28 05:30:29;;;;;;;34.40;12.90;;;1.00;54.60;;;;;;5072944;28;20228;-51
2024/01/28 05:32:55;;;;;;;29.30;11.87;;;1.00;4.70;;;;;;5073010;28;20468;-50
2024/01/28 05:35:20;;;;;;;37.90;12.50;;;1.00;1.00;;;;;;5072995;28;20408;-51
2024/01/28 05:37:46;;;;;;;50.47;14.23;;;1.00;99.90;;;;;;5073084;28;20186;-50
2024/01/28 05:40:12;;;;;;;32.97;12.30;;;0.90;99.90;;;;;;5073173;28;20186;-50
2024/01/28 05:42:37;;;;;;;36.87;13.90;;;0.90;99.90;;;;;;5072724;28;20541;-50
2024/01/28 05:45:03;;;;;;;30.97;12.60;;;0.80;99.90;;;;;;5072696;28;20185;-51
2024/01/28 05:47:29;;;;;;;33.03;12.10;;;0.80;99.90;;;;;;5073150;28;20193;-51
2024/01/28 05:49:55;;;;;;;32.60;12.97;;;0.70;99.90;;;;;;5073193;28;20193;-51
2024/01/28 05:52:20;;;;;;;37.87;12.73;;;0.70;99.90;;;;;;5072904;28;20456;-50
2024/01/28 05:54:46;;;;;;;23.53;11.90;;;0.70;1.00;;;;;;5072886;28;20184;-51
2024/01/28 05:57:12;;;;;;;41.27;13.50;;;0.60;99.90;;;;;;5072866;28;20190;-51
2024/01/28 05:59:38;;;;;;;35.47;12.53;;;0.60;99.90;;;;;;5072970;28;20272;-50
2024/01/28 06:02:04;;;;;;;31.43;13.07;;;0.60;1.00;;;;;;5072900;28;20512;-49
2024/01/28 06:04:30;;;;;;;42.77;14.27;;;0.60;15.50;;;;;;5072893;28;20432;-50
2024/01/28 06:06:55;;;;;;;37.97;13.10;;;0.50;99.90;;;;;;5075115;28;20228;-51
2024/01/28 06:09:21;;;;;;;35.00;13.30;;;0.50;1.00;;;;;;5076812;28;20401;-50
2024/01/28 06:11:47;;;;;;;28.20;12.30;;;0.50;1.00;;;;;;5076801;28;20178;-51
2024/01/28 06:14:13;;;;;;;49.13;13.80;;;0.50;3.50;;;;;;5076164;28;20218;-50
2024/01/28 06:16:38;;;;;;;30.10;12.63;;;0.40;17.50;;;;;;5076531;28;20178;-50
2024/01/28 06:19:04;;;;;;;34.77;13.20;;;0.40;99.90;;;;;;5076574;28;20186;-51
2024/01/28 06:21:30;;;;;;;35.70;12.80;;;0.40;99.90;;;;;;5076482;28;20188;-51
2024/01/28 06:23:55;;;;;;;32.87;12.63;;;0.40;99.90;;;;;;5076277;28;20178;-51
2024/01/28 06:26:21;;;;;;;29.00;11.77;;;0.40;99.90;;;;;;5076513;28;20186;-50
2024/01/28 06:28:47;;;;;;;29.37;11.80;;;0.30;99.90;;;;;;5076106;28;20618;-50
2024/01/28 06:31:14;;;;;;;31.27;12.93;;;0.30;99.90;;;;;;5076209;28;20495;-51
2024/01/28 06:33:40;;;;;;;28.53;11.40;;;0.40;1.00;;;;;;5075900;28;20470;-51
2024/01/28 06:36:06;;;;;;;35.70;12.13;;;0.40;1.00;;;;;;5075894;28;20413;-51
2024/01/28 06:38:32;;;;;;;30.77;12.50;;;0.30;1.00;;;;;;5075781;28;20931;-51
2024/01/28 06:40:58;;;;;;;30.93;11.63;;;0.30;1.00;;;;;;5075684;28;20443;-52
2024/01/28 06:43:25;;;;;;;29.60;11.53;;;0.50;1.00;;;;;;5075570;28;20659;-51
2024/01/28 06:45:51;;;;;;;36.63;11.30;;;0.50;1.00;;;;;;5076137;28;20470;-51
2024/01/28 06:48:17;;;;;;;30.13;10.83;;;0.50;1.00;;;;;;5076129;28;20419;-51
2024/01/28 06:50:44;;;;;;;30.13;11.60;;;0.50;1.00;;;;;;5075711;28;20850;-51
2024/01/28 06:53:10;;;;;;;29.00;10.77;;;0.40;1.00;;;;;;5075768;28;20210;-51
2024/01/28 06:55:36;;;;;;;27.30;12.73;;;0.40;1.00;;;;;;5076043;28;20499;-51
2024/01/28 06:58:01;;;;;;;34.57;11.77;;;0.50;1.00;;;;;;5075843;28;20228;-51
2024/01/28 07:00:27;;;;;;;27.63;11.03;;;0.40;1.00;;;;;;5075625;28;20618;-51
2024/01/28 07:02:56;;;;;;;30.17;11.13;;;0.40;1.00;;;;;;5075791;28;20182;-52
2024/01/28 07:05:22;;;;;;;26.30;10.90;;;0.40;1.00;;;;;;5075878;28;20186;-51
2024/01/28 07:07:48;;;;;;;29.37;9.90;;;0.40;1.00;;;;;;5075366;28;20468;-51
2024/01/28 07:10:14;;;;;;;25.33;11.13;;;0.40;1.00;;;;;;5075630;28;20416;-51
2024/01/28 07:12:40;;;;;;;25.27;10.70;;;0.50;1.00;;;;;;5075261;28;20465;-51
2024/01/28 07:15:05;;;;;;;35.37;11.03;;;0.50;1.00;;;;;;5075442;28;20668;-53
2024/01/28 07:17:32;;;;;;;32.40;11.73;;;0.50;1.00;;;;;;5075081;28;20186;-51
2024/01/28 07:19:58;;;;;;;41.63;11.90;;;0.60;1.00;;;;;;5075210;28;20420;-50
2024/01/28 07:22:23;;;;;;;27.80;11.33;;;0.70;1.00;;;;;;5074839;28;20420;-51
2024/01/28 07:24:49;;;;;;;26.90;10.60;;;0.70;1.00;;;;;;5075007;28;20403;-50
2024/01/28 07:27:15;;;;;;;25.67;10.13;;;0.80;1.00;;;;;;5075170;28;20178;-51
2024/01/28 07:29:44;;;;;;;30.83;10.67;;;0.90;99.90;;;;;;5075248;28;20280;-50
2024/01/28 07:32:13;;;;;;;29.60;10.20;;;0.90;99.90;;;;;;5074879;28;20638;-50
2024/01/28 07:34:42;;;;;;;32.67;11.53;;;1.00;99.90;;;;;;5075068;28;20421;-51
2024/01/28 07:37:08;;;;;;;27.60;10.90;;;1.00;48.50;;;;;;5074996;28;20417;-50
2024/01/28 07:39:33;;;;;;;27.80;11.00;;;1.00;1.00;;;;;;5075176;28;21010;-51
2024/01/28 07:41:59;;;;;;;24.53;10.30;;;1.00;1.00;;;;;;5075091;28;20919;-51
2024/01/28 07:44:25;;;;;;;22.83;9.73;;;1.00;1.00;;;;;;5075121;28;20200;-51
2024/01/28 07:46:53;;;;;;;23.03;9.20;;;1.20;1.00;;;;;;5075121;28;20202;-51
2024/01/28 07:49:20;;;;;;;28.23;12.13;;;1.30;1.00;;;;;;5074502;28;20888;-51
2024/01/28 07:51:45;;;;;;;23.03;9.77;;;1.30;41.70;;;;;;5074425;28;20427;-51
2024/01/28 07:54:11;;;;;;;37.60;9.90;;;1.40;1.00;;;;;;5074677;28;20460;-51
2024/01/28 07:56:37;;;;;;;28.23;10.20;;;1.40;93.80;;;;;;5074908;28;20178;-50
2024/01/28 07:59:03;;;;;;;27.97;10.10;;;1.50;99.90;;;;;;5074213;28;20413;-51
2024/01/28 08:01:30;;;;;;;40.27;10.33;;;1.60;99.90;;;;;;5074858;28;20536;-51
2024/01/28 08:03:56;;;;;;;24.13;9.00;;;1.60;99.90;;;;;;5074526;28;20585;-50
2024/01/28 08:06:22;;;;;;;24.53;8.33;;;1.70;99.90;;;;;;5074117;28;20408;-50
2024/01/28 08:08:48;;;;;;;19.70;8.43;;;1.80;99.90;;;;;;5073933;28;20478;-51
2024/01/28 08:11:14;;;;;;;18.60;8.30;;;1.80;1.00;;;;;;5074104;28;20269;-50
2024/01/28 08:13:41;;;;;;;22.07;7.03;;;1.80;28.20;;;;;;5074308;28;20570;-51
2024/01/28 08:16:07;;;;;;;17.50;7.67;;;1.90;1.00;;;;;;5074131;28;20483;-51
2024/01/28 08:18:32;;;;;;;11.10;6.17;;;2.00;1.00;;;;;;5074263;28;20741;-51
2024/01/28 08:20:58;;;;;;;17.17;6.80;;;2.00;1.00;;;;;;5074111;28;20447;-50
2024/01/28 08:23:25;;;;;;;22.27;7.33;;;2.10;99.90;;;;;;5073856;28;20540;-50
2024/01/28 08:25:51;;;;;;;20.40;6.73;;;2.10;99.90;;;;;;5073882;28;20182;-50
2024/01/28 08:28:17;;;;;;;22.93;7.90;;;2.10;99.90;;;;;;5073061;28;20423;-50
2024/01/28 08:30:43;;;;;;;17.50;6.50;;;2.10;39.50;;;;;;5073573;28;20404;-50
2024/01/28 08:33:08;;;;;;;19.10;6.43;;;2.10;1.00;;;;;;5073490;28;20217;-51
2024/01/28 08:35:34;;;;;;;20.37;7.37;;;2.10;1.00;;;;;;5073043;28;20473;-52
2024/01/28 08:38:00;;;;;;;20.27;7.17;;;2.10;1.00;;;;;;5073820;28;20634;-51
2024/01/28 08:40:25;;;;;;;16.37;6.70;;;2.20;1.00;;;;;;5073771;28;20669;-52
2024/01/28 08:42:51;;;;;;;18.27;6.20;;;2.20;1.00;;;;;;5072859;28;20657;-51
2024/01/28 08:45:17;;;;;;;16.63;6.47;;;2.20;1.00;;;;;;5073344;28;20181;-51
2024/01/28 08:47:42;;;;;;;19.90;6.93;;;2.20;1.00;;;;;;5073826;28;20423;-51
2024/01/28 08:50:09;;;;;;;20.20;8.07;;;2.20;1.00;;;;;;5073612;28;20183;-52
2024/01/28 08:52:35;;;;;;;23.73;7.30;;;2.20;1.00;;;;;;5073157;28;20217;-51
2024/01/28 08:55:00;;;;;;;15.93;7.30;;;2.20;1.00;;;;;;5073234;28;20428;-51
2024/01/28 08:57:26;;;;;;;18.80;7.70;;;2.20;99.90;;;;;;5073202;28;20196;-51
2024/01/28 08:59:52;;;;;;;17.53;7.23;;;2.20;99.90;;;;;;5073372;28;20174;-51
2024/01/28 09:02:17;;;;;;;18.00;7.43;;;2.20;99.90;;;;;;5073609;28;20186;-52
2024/01/28 09:04:43;;;;;;;21.83;7.50;;;2.20;99.90;;;;;;5073200;28;20196;-51
2024/01/28 09:07:08;;;;;;;20.00;6.80;;;2.20;99.90;;;;;;5072899;28;20288;-51
2024/01/28 09:09:34;;;;;;;16.73;7.40;;;2.30;99.90;;;;;;5073324;28;20185;-51
2024/01/28 09:12:00;;;;;;;13.40;6.37;;;2.30;99.90;;;;;;5073007;28;20273;-51
2024/01/28 09:14:26;;;;;;;23.60;7.97;;;2.30;99.90;;;;;;5073128;28;20214;-51
2024/01/28 09:16:52;;;;;;;17.53;6.50;;;2.40;99.90;;;;;;5073267;28;20227;-51
2024/01/28 09:19:17;;;;;;;23.53;7.50;;;2.40;99.90;;;;;;5073573;28;20409;-52
2024/01/28 09:21:43;;;;;;;23.23;6.83;;;2.50;99.90;;;;;;5073340;28;20178;-51
2024/01/28 09:24:08;;;;;;;17.77;6.07;;;2.50;99.90;;;;;;5073344;28;20532;-52
2024/01/28 09:26:34;;;;;;;24.07;7.60;;;2.50;99.90;;;;;;5073044;28;20182;-51
2024/01/28 09:28:59;;;;;;;17.30;7.20;;;2.50;99.90;;;;;;5073286;28;20192;-51
2024/01/28 09:31:25;;;;;;;23.30;7.47;;;2.60;99.90;;;;;;5073318;28;20706;-51
2024/01/28 09:33:50;;;;;;;21.13;7.10;;;2.60;99.90;;;;;;5073341;28;20734;-52
2024/01/28 09:36:16;;;;;;;15.43;5.77;;;2.70;99.90;;;;;;5073029;28;20542;-51
2024/01/28 09:38:42;;;;;;;16.40;5.90;;;2.80;99.90;;;;;;5073267;28;20224;-52
2024/01/28 09:41:22;;;;;;;17.03;7.00;;;2.80;99.90;;;;;;5074815;28;20519;-51
2024/01/28 09:43:47;;;;;;;19.50;6.60;;;2.80;99.90;;;;;;5077521;28;20170;-51
2024/01/28 09:46:13;;;;;;;20.50;6.50;;;2.90;99.90;;;;;;5077391;28;20797;-51
2024/01/28 09:48:41;;;;;;;15.13;6.30;;;3.00;99.90;;;;;;5077132;28;20178;-51
2024/01/28 09:51:08;;;;;;;15.23;5.87;;;3.10;99.90;;;;;;5077197;28;20669;-50
2024/01/28 09:53:33;;;;;;;16.97;6.17;;;3.20;99.90;;;;;;5076717;28;20463;-51
2024/01/28 09:55:59;;;;;;;11.70;5.53;;;3.30;99.90;;;;;;5077011;28;20404;-50
2024/01/28 09:58:25;;;;;;;12.80;5.57;;;3.30;98.30;;;;;;5076649;28;20174;-50
2024/01/28 10:00:51;;;;;;;17.67;6.57;;;3.40;92.00;;;;;;5076519;28;20182;-50
2024/01/28 10:03:16;;;;;;;11.80;5.80;;;3.40;72.50;;;;;;5076541;28;20420;-51
2024/01/28 10:05:42;;;;;;;16.77;5.97;;;3.40;81.40;;;;;;5076700;28;20174;-50
2024/01/28 10:08:09;;;;;;;16.00;5.00;;;3.50;64.60;;;;;;5076459;28;20226;-50
2024/01/28 10:10:35;;;;;;;14.77;5.87;;;3.60;44.50;;;;;;5076614;28;20642;-52
2024/01/28 10:13:02;;;;;;;14.80;5.80;;;3.70;35.00;;;;;;5076609;28;20468;-52
2024/01/28 10:15:30;;;;;;;14.17;5.50;;;4.00;36.00;;;;;;5076497;28;20491;-51
2024/01/28 10:17:56;;;;;;;17.30;6.10;;;4.60;20.30;;;;;;5076172;28;20446;-51
2024/01/28 10:20:23;;;;;;;17.87;6.50;;;5.20;1.00;;;;;;5076630;28;20417;-51
2024/01/28 10:22:51;;;;;;;16.13;5.20;;;5.30;1.00;;;;;;5076364;28;20190;-52
2024/01/28 10:25:17;;;;;;;13.17;5.67;;;5.60;1.00;;;;;;5076181;28;20785;-51
2024/01/28 10:27:44;;;;;;;20.13;5.90;;;5.50;1.00;;;;;;5075930;28;20762;-51
2024/01/28 10:30:11;;;;;;;11.63;5.60;;;5.40;1.00;;;;;;5076165;28;20761;-51
2024/01/28 10:32:37;;;;;;;15.00;5.40;;;5.30;1.00;;;;;;5075995;28;20999;-52
2024/01/28 10:35:07;;;;;;;17.23;6.07;;;5.20;1.00;;;;;;5075882;28;20416;-51
2024/01/28 10:37:33;;;;;;;12.80;5.40;;;5.30;1.00;;;;;;5076152;28;20417;-52
2024/01/28 10:40:05;;;;;;;16.33;5.10;;;5.40;1.00;;;;;;5075770;28;21053;-52
2024/01/28 10:42:37;;;;;;;10.50;5.20;;;5.70;1.00;;;;;;5075987;28;20193;-51
2024/01/28 10:45:17;;;;;;;12.70;5.00;;;5.80;1.00;;;;;;5075950;28;20404;-51
2024/01/28 10:47:52;;;;;;;13.50;5.63;;;6.10;1.00;;;;;;5076208;28;20404;-51
2024/01/28 10:50:20;;;;;;;14.90;5.00;;;6.50;1.00;;;;;;5076106;28;20400;-51
2024/01/28 10:52:47;;;;;;;12.07;4.90;;;7.00;1.00;;;;;;5075385;28;20456;-51
2024/01/28 10:55:15;;;;;;;11.50;4.70;;;7.90;1.00;;;;;;5075794;28;20427;-51
2024/01/28 10:57:41;;;;;;;11.30;4.77;;;9.00;1.00;;;;;;5075709;28;20908;-52
2024/01/28 11:00:10;;;;;;;14.87;4.53;;;10.50;1.00;;;;;;5075767;28;20435;-52
2024/01/28 11:02:39;;;;;;;13.37;4.30;;;11.60;1.00;;;;;;5075753;28;20434;-51
2024/01/28 11:05:06;;;;;;;12.60;4.43;;;12.90;1.00;;;;;;5075816;28;20419;-50
2024/01/28 11:07:31;;;;;;;14.90;4.90;;;14.40;1.00;;;;;;5075709;28;20476;-51
2024/01/28 11:10:00;;;;;;;10.23;4.50;;;15.50;1.00;;;;;;5075688;28;20477;-52
2024/01/28 11:12:27;;;;;;;13.37;4.70;;;16.20;1.00;;;;;;5075218;28;20662;-51
2024/01/28 11:14:53;;;;;;;12.50;4.00;;;16.80;1.00;;;;;;5075253;28;20416;-51
2024/01/28 11:17:19;;;;;;;11.30;4.27;;;16.80;1.00;;;;;;5075145;28;20408;-52
2024/01/28 11:19:44;;;;;;;12.57;4.60;;;16.90;1.00;;;;;;5075674;28;20256;-52
2024/01/28 11:22:16;;;;;;;15.63;4.33;;;17.30;1.00;;;;;;5075235;28;20522;-51
2024/01/28 11:25:10;;;;;;;15.10;4.80;;;17.60;1.00;;;;;;5075322;28;20630;-51
2024/01/28 11:27:38;;;;;;;14.70;4.63;;;18.10;1.00;;;;;;5073780;28;20432;-51
2024/01/28 11:30:04;;;;;;;12.23;4.33;;;18.10;1.00;;;;;;5075228;28;20503;-51
2024/01/28 11:32:33;;;;;;;9.73;3.77;;;17.80;1.00;;;;;;5075501;28;20468;-52
2024/01/28 11:34:59;;;;;;;8.93;3.90;;;17.80;1.00;;;;;;5075048;28;20772;-52
2024/01/28 11:37:27;;;;;;;11.57;3.90;;;17.30;1.00;;;;;;5074614;28;20519;-51
2024/01/28 11:40:03;;;;;;;10.60;4.03;;;16.00;1.00;;;;;;5074886;28;20259;-50
2024/01/28 11:42:29;;;;;;;12.20;4.30;;;15.20;1.00;;;;;;5074746;28;20397;-50
2024/01/28 11:44:55;;;;;;;8.73;4.30;;;14.30;1.00;;;;;;5074554;28;20780;-51
2024/01/28 11:47:21;;;;;;;18.30;3.50;;;13.80;1.00;;;;;;5074891;28;20420;-51
2024/01/28 11:49:48;;;;;;;7.67;3.67;;;13.40;1.00;;;;;;5074377;28;20408;-51
2024/01/28 11:52:15;;;;;;;11.30;3.90;;;13.20;1.00;;;;;;5074662;28;20182;-50
2024/01/28 11:54:43;;;;;;;11.40;4.93;;;12.90;1.00;;;;;;5074915;28;20427;-50
2024/01/28 11:57:09;;;;;;;10.63;4.20;;;12.80;1.00;;;;;;5074533;28;20421;-50
2024/01/28 11:59:35;;;;;;;9.27;4.20;;;12.60;1.00;;;;;;5074537;28;20466;-51
2024/01/28 12:02:02;;;;;;;11.83;3.83;;;12.40;1.00;;;;;;5074536;28;20188;-50
2024/01/28 12:04:27;;;;;;;12.50;4.13;;;12.30;1.00;;;;;;5073732;28;20451;-50
2024/01/28 12:06:53;;;;;;;13.63;4.00;;;12.10;1.00;;;;;;5073973;28;20440;-51
2024/01/28 12:09:19;;;;;;;10.63;3.90;;;11.70;1.00;;;;;;5074244;28;20166;-51
2024/01/28 12:11:44;;;;;;;8.70;3.50;;;11.70;1.00;;;;;;5073949;28;20261;-51
2024/01/28 12:14:10;;;;;;;9.37;3.73;;;12.10;1.00;;;;;;5073920;28;20555;-51
2024/01/28 12:16:36;;;;;;;6.20;3.10;;;12.30;1.00;;;;;;5074310;28;20696;-51
2024/01/28 12:19:01;;;;;;;7.60;3.10;;;12.60;1.00;;;;;;5074172;28;20190;-51
2024/01/28 12:21:27;;;;;;;9.10;3.80;;;13.20;1.00;;;;;;5074121;28;20177;-51
2024/01/28 12:23:57;;;;;;;7.00;4.07;;;13.90;1.00;;;;;;5073767;28;20646;-51
2024/01/28 12:26:23;;;;;;;7.87;3.70;;;14.30;1.00;;;;;;5073647;28;20654;-51
2024/01/28 12:28:50;;;;;;;14.60;3.63;;;14.30;1.00;;;;;;5073920;28;20421;-51
2024/01/28 12:31:18;;;;;;;7.57;3.57;;;14.60;1.00;;;;;;5073798;28;20439;-50
2024/01/28 12:33:45;;;;;;;9.67;3.63;;;15.10;1.00;;;;;;5073605;28;20464;-51
2024/01/28 12:36:11;;;;;;;7.47;3.23;;;15.50;1.00;;;;;;5073564;28;20916;-50
2024/01/28 12:38:38;;;;;;;6.90;3.40;;;15.80;1.00;;;;;;5073848;28;20428;-51
2024/01/28 12:41:04;;;;;;;7.30;3.27;;;16.70;1.00;;;;;;5073923;28;20181;-51